Time;durP1;ratioP1;P1;durP2;ratioP2;P2;SDS_P1;SDS_P2;PMS_P1;PMS_P2;Temp;Humidity;BMP_temperature;BMP_pressure;BME280_temperature;BME280_humidity;BME280_pressure;Samples;Min_cycle;Max_cycle;Signal;HPM_P1;HPM_P2
2023/07/23 00:02:18;;;;;;;;;;;21.30;63.10;;;;;;5001019;28;1507;-70
2023/07/23 00:04:44;;;;;;;;;;;21.30;63.10;;;;;;4998441;28;1983;-70
2023/07/23 00:07:09;;;;;;;;;;;21.30;63.10;;;;;;4997206;28;876;-70
2023/07/23 00:09:35;;;;;;;;;;;21.30;63.10;;;;;;4998652;28;773;-69
2023/07/23 00:12:00;;;;;;;;;;;21.30;63.10;;;;;;4985398;28;1139;-70
2023/07/23 00:14:26;;;;;;;;;;;21.30;63.10;;;;;;4988824;28;827;-69
2023/07/23 00:16:52;;;;;;;;;;;21.30;63.20;;;;;;4999615;28;883;-70
2023/07/23 00:19:19;;;;;;;;;;;21.30;63.20;;;;;;4996506;28;990;-69
2023/07/23 00:21:47;;;;;;;;;;;21.30;63.20;;;;;;4987994;28;1269;-69
2023/07/23 00:24:14;;;;;;;;;;;21.30;63.20;;;;;;4997890;28;1886;-70
2023/07/23 00:26:39;;;;;;;;;;;21.30;63.20;;;;;;4997888;28;861;-69
2023/07/23 00:29:04;;;;;;;;;;;21.30;63.20;;;;;;4984219;28;1305;-70
2023/07/23 00:31:30;;;;;;;;;;;21.30;63.20;;;;;;4995440;28;1264;-69
2023/07/23 00:33:55;;;;;;;;;;;21.30;63.30;;;;;;4999951;28;902;-69
2023/07/23 00:36:21;;;;;;;;;;;21.30;63.30;;;;;;5001597;28;892;-69
2023/07/23 00:38:46;;;;;;;;;;;21.30;63.30;;;;;;4999185;28;920;-70
2023/07/23 00:41:12;;;;;;;;;;;21.30;63.30;;;;;;5001159;28;1370;-70
2023/07/23 00:43:37;;;;;;;;;;;21.30;63.30;;;;;;4998584;28;805;-69
2023/07/23 00:46:03;;;;;;;;;;;21.30;63.30;;;;;;5000444;28;1963;-70
2023/07/23 00:48:28;;;;;;;;;;;21.30;63.30;;;;;;4997144;28;879;-69
2023/07/23 00:50:55;;;;;;;;;;;21.30;63.30;;;;;;4995756;28;1383;-69
2023/07/23 00:53:21;;;;;;;;;;;21.30;63.40;;;;;;4998348;28;821;-69
2023/07/23 00:55:47;;;;;;;;;;;21.30;63.40;;;;;;4967759;28;1571;-69
2023/07/23 00:58:12;;;;;;;;;;;21.30;63.40;;;;;;4998077;28;854;-69
2023/07/23 01:00:37;;;;;;;;;;;21.30;63.40;;;;;;5002139;28;1304;-69
2023/07/23 01:03:03;;;;;;;;;;;21.30;63.40;;;;;;4996074;28;908;-69
2023/07/23 01:05:28;;;;;;;;;;;21.30;63.40;;;;;;5000608;28;1949;-69
2023/07/23 01:07:54;;;;;;;;;;;21.30;63.40;;;;;;4995129;28;816;-68
2023/07/23 01:10:19;;;;;;;;;;;21.30;63.40;;;;;;4997899;28;1361;-70
2023/07/23 01:12:45;;;;;;;;;;;21.30;63.40;;;;;;4982569;28;940;-69
2023/07/23 01:15:10;;;;;;;;;;;21.30;63.40;;;;;;5001160;28;864;-69
2023/07/23 01:17:36;;;;;;;;;;;21.30;63.40;;;;;;4998721;28;1006;-69
2023/07/23 01:20:05;;;;;;;;;;;21.30;63.40;;;;;;4989585;28;1358;-69
2023/07/23 01:22:31;;;;;;;;;;;21.30;63.50;;;;;;4982245;28;1143;-69
2023/07/23 01:24:57;;;;;;;;;;;21.30;63.40;;;;;;4997678;28;1907;-69
2023/07/23 01:27:22;;;;;;;;;;;21.30;63.50;;;;;;4998456;28;1273;-69
2023/07/23 01:29:48;;;;;;;;;;;21.30;63.50;;;;;;4994730;28;1258;-69
2023/07/23 01:32:13;;;;;;;;;;;21.30;63.50;;;;;;4996303;28;809;-68
2023/07/23 01:34:39;;;;;;;;;;;21.30;63.50;;;;;;4993331;28;884;-70
2023/07/23 01:37:04;;;;;;;;;;;21.30;63.50;;;;;;4990771;28;1218;-69
2023/07/23 01:39:32;;;;;;;;;;;21.30;63.60;;;;;;5001743;28;1544;-69
2023/07/23 01:41:57;;;;;;;;;;;21.30;63.60;;;;;;4983849;28;1321;-69
2023/07/23 01:44:23;;;;;;;;;;;21.30;63.60;;;;;;4997567;28;1910;-69
2023/07/23 01:46:49;;;;;;;;;;;21.30;63.60;;;;;;4997555;28;1349;-69
2023/07/23 01:49:15;;;;;;;;;;;21.30;63.60;;;;;;5000366;28;1335;-71
2023/07/23 01:51:40;;;;;;;;;;;21.30;63.60;;;;;;5001284;28;1415;-70
2023/07/23 01:54:06;;;;;;;;;;;21.30;63.60;;;;;;5004045;28;1376;-70
2023/07/23 01:56:31;;;;;;;;;;;21.30;63.60;;;;;;5002785;28;1344;-68
2023/07/23 01:58:57;;;;;;;;;;;21.30;63.70;;;;;;5001172;28;1204;-69
2023/07/23 02:01:22;;;;;;;;;;;21.30;63.70;;;;;;5001206;28;1441;-68
2023/07/23 02:03:48;;;;;;;;;;;21.30;64.40;;;;;;5001014;28;1312;-70
2023/07/23 02:06:13;;;;;;;;;;;21.30;63.70;;;;;;5000770;28;2227;-70
2023/07/23 02:08:39;;;;;;;;;;;21.30;63.70;;;;;;4998431;28;1051;-70
2023/07/23 02:11:06;;;;;;;;;;;21.30;63.70;;;;;;4999935;28;1371;-70
2023/07/23 02:13:31;;;;;;;;;;;21.30;63.80;;;;;;4998635;28;1510;-69
2023/07/23 02:15:57;;;;;;;;;;;21.30;63.70;;;;;;5000281;28;848;-67
2023/07/23 02:18:22;;;;;;;;;;;21.30;63.80;;;;;;4995415;28;954;-67
2023/07/23 02:20:48;;;;;;;;;;;21.30;63.80;;;;;;4999231;28;1362;-68
2023/07/23 02:23:16;;;;;;;;;;;21.30;63.80;;;;;;4999503;28;900;-68
2023/07/23 02:25:42;;;;;;;;;;;21.30;63.80;;;;;;4996968;28;1898;-67
2023/07/23 02:28:08;;;;;;;;;;;21.30;63.80;;;;;;4998920;28;1492;-67
2023/07/23 02:30:33;;;;;;;;;;;21.30;63.80;;;;;;4999581;28;1689;-68
2023/07/23 02:32:59;;;;;;;;;;;21.30;63.80;;;;;;4995094;28;1023;-68
2023/07/23 02:35:24;;;;;;;;;;;21.30;63.80;;;;;;4996706;28;829;-68
2023/07/23 02:37:50;;;;;;;;;;;21.30;63.80;;;;;;4999801;28;850;-68
2023/07/23 02:40:15;;;;;;;;;;;21.30;63.90;;;;;;5000641;28;1279;-68
2023/07/23 02:42:40;;;;;;;;;;;21.30;63.80;;;;;;5000454;28;864;-67
2023/07/23 02:45:06;;;;;;;;;;;21.30;63.90;;;;;;5001749;28;1930;-68
2023/07/23 02:47:32;;;;;;;;;;;21.30;63.90;;;;;;5001918;28;806;-68
2023/07/23 02:49:57;;;;;;;;;;;21.30;63.90;;;;;;5001602;28;1281;-68
2023/07/23 02:52:23;;;;;;;;;;;21.30;63.90;;;;;;4999783;28;884;-68
2023/07/23 02:54:49;;;;;;;;;;;21.30;64.00;;;;;;5002772;28;966;-69
2023/07/23 02:57:14;;;;;;;;;;;21.30;64.00;;;;;;5003392;28;903;-70
2023/07/23 02:59:40;;;;;;;;;;;21.30;64.00;;;;;;4986315;28;1366;-69
2023/07/23 03:02:05;;;;;;;;;;;21.30;64.00;;;;;;5001883;28;1280;-69
2023/07/23 03:04:31;;;;;;;;;;;21.30;64.00;;;;;;5000506;28;1964;-69
2023/07/23 03:06:56;;;;;;;;;;;21.30;64.00;;;;;;4999131;28;1199;-69
2023/07/23 03:09:22;;;;;;;;;;;21.30;64.00;;;;;;4997666;28;1198;-69
2023/07/23 03:11:47;;;;;;;;;;;21.30;64.00;;;;;;5002054;28;1354;-69
2023/07/23 03:14:13;;;;;;;;;;;21.30;64.00;;;;;;5001842;28;908;-69
2023/07/23 03:16:38;;;;;;;;;;;21.30;64.10;;;;;;5001183;28;1050;-69
2023/07/23 03:19:04;;;;;;;;;;;21.30;64.10;;;;;;5002727;28;1254;-70
2023/07/23 03:21:29;;;;;;;;;;;21.30;64.10;;;;;;4999623;28;1322;-69
2023/07/23 03:23:55;;;;;;;;;;;21.30;64.10;;;;;;4997702;28;896;-70
2023/07/23 03:26:20;;;;;;;;;;;21.30;64.10;;;;;;5005951;28;1981;-70
2023/07/23 03:28:46;;;;;;;;;;;21.30;64.10;;;;;;5005628;28;797;-71
2023/07/23 03:31:11;;;;;;;;;;;21.30;64.10;;;;;;4999739;28;1371;-70
2023/07/23 03:33:37;;;;;;;;;;;21.30;64.10;;;;;;4999163;28;849;-70
2023/07/23 03:36:03;;;;;;;;;;;21.30;64.10;;;;;;5001720;28;940;-70
2023/07/23 03:38:29;;;;;;;;;;;21.30;64.10;;;;;;4999762;28;875;-70
2023/07/23 03:40:55;;;;;;;;;;;21.30;64.10;;;;;;5003137;28;1257;-70
2023/07/23 03:43:20;;;;;;;;;;;21.30;64.10;;;;;;4992332;28;1255;-69
2023/07/23 03:45:46;;;;;;;;;;;21.30;64.20;;;;;;5000676;28;1914;-71
2023/07/23 03:48:11;;;;;;;;;;;21.30;64.20;;;;;;4997235;28;1003;-71
2023/07/23 03:50:37;;;;;;;;;;;21.30;64.20;;;;;;5001562;28;1268;-72
2023/07/23 03:53:02;;;;;;;;;;;21.30;64.20;;;;;;5000889;28;910;-70
2023/07/23 03:55:28;;;;;;;;;;;21.30;64.20;;;;;;5004239;28;883;-71
2023/07/23 03:57:54;;;;;;;;;;;21.20;64.20;;;;;;4998507;28;825;-71
2023/07/23 04:00:19;;;;;;;;;;;21.30;64.20;;;;;;5002128;28;1291;-71
2023/07/23 04:02:44;;;;;;;;;;;21.30;64.30;;;;;;5003534;28;868;-71
2023/07/23 04:05:10;;;;;;;;;;;21.30;64.20;;;;;;5003190;28;1899;-71
2023/07/23 04:07:35;;;;;;;;;;;21.30;64.30;;;;;;4998961;28;863;-71
2023/07/23 04:10:03;;;;;;;;;;;21.30;64.30;;;;;;5005533;28;1288;-71
2023/07/23 04:12:28;;;;;;;;;;;21.30;64.30;;;;;;5000358;28;841;-71
2023/07/23 04:14:54;;;;;;;;;;;21.30;64.30;;;;;;5001152;28;836;-71
2023/07/23 04:17:19;;;;;;;;;;;21.20;64.20;;;;;;5013056;28;935;-71
2023/07/23 04:19:45;;;;;;;;;;;21.30;64.30;;;;;;5003089;28;1349;-71
2023/07/23 04:22:10;;;;;;;;;;;21.30;64.30;;;;;;4994561;28;793;-71
2023/07/23 04:24:36;;;;;;;;;;;21.30;64.30;;;;;;5003471;28;1910;-70
2023/07/23 04:27:01;;;;;;;;;;;21.20;64.30;;;;;;4998086;28;924;-70
2023/07/23 04:29:27;;;;;;;;;;;21.30;64.30;;;;;;5012006;28;805;-71
2023/07/23 04:31:52;;;;;;;;;;;21.30;64.30;;;;;;5010443;28;1296;-72
2023/07/23 04:34:18;;;;;;;;;;;21.30;64.40;;;;;;5004550;28;884;-71
2023/07/23 04:36:43;;;;;;;;;;;21.30;64.30;;;;;;5003271;28;761;-71
2023/07/23 04:39:09;;;;;;;;;;;21.30;64.30;;;;;;4991451;28;864;-71
2023/07/23 04:41:35;;;;;;;;;;;21.30;65.10;;;;;;5002351;28;1251;-70
2023/07/23 04:44:00;;;;;;;;;;;21.30;64.40;;;;;;4999632;28;821;-71
2023/07/23 04:46:26;;;;;;;;;;;21.30;64.40;;;;;;5004932;28;1999;-71
2023/07/23 04:48:51;;;;;;;;;;;21.30;64.40;;;;;;5000034;28;797;-71
2023/07/23 04:51:17;;;;;;;;;;;21.30;64.40;;;;;;4998600;28;1249;-70
2023/07/23 04:53:42;;;;;;;;;;;21.30;64.40;;;;;;5000042;28;1014;-70
2023/07/23 04:56:08;;;;;;;;;;;21.30;64.40;;;;;;5000622;28;834;-72
2023/07/23 04:58:33;;;;;;;;;;;21.30;64.40;;;;;;4999645;28;848;-72
2023/07/23 05:01:04;;;;;;;;;;;21.30;64.40;;;;;;5000897;28;1299;-71
2023/07/23 05:03:29;;;;;;;;;;;21.30;64.40;;;;;;4999601;28;875;-73
2023/07/23 05:05:55;;;;;;;;;;;21.20;64.40;;;;;;5000505;28;1961;-71
2023/07/23 05:08:20;;;;;;;;;;;21.30;64.50;;;;;;5002934;28;1382;-71
2023/07/23 05:10:46;;;;;;;;;;;21.30;64.50;;;;;;4998076;28;1274;-72
2023/07/23 05:13:12;;;;;;;;;;;21.30;64.50;;;;;;5001087;28;1105;-70
2023/07/23 05:15:37;;;;;;;;;;;21.30;64.50;;;;;;4983384;28;809;-71
2023/07/23 05:18:03;;;;;;;;;;;21.20;64.40;;;;;;4984151;28;912;-71
2023/07/23 05:20:28;;;;;;;;;;;21.30;64.50;;;;;;4988086;28;1291;-70
2023/07/23 05:22:54;;;;;;;;;;;21.30;64.50;;;;;;4995505;28;899;-71
2023/07/23 05:25:20;;;;;;;;;;;21.30;64.50;;;;;;4984353;28;1898;-71
2023/07/23 05:27:45;;;;;;;;;;;21.20;64.30;;;;;;5000636;28;848;-71
2023/07/23 05:30:11;;;;;;;;;;;21.30;64.40;;;;;;4981885;28;1264;-69
2023/07/23 05:32:36;;;;;;;;;;;21.30;64.20;;;;;;5000846;28;867;-69
2023/07/23 05:35:02;;;;;;;;;;;21.30;63.90;;;;;;4998111;28;904;-69
2023/07/23 05:37:29;;;;;;;;;;;21.30;63.70;;;;;;4986058;28;1520;-69
2023/07/23 05:39:54;;;;;;;;;;;21.30;63.60;;;;;;4997204;28;1308;-69
2023/07/23 05:42:20;;;;;;;;;;;21.30;62.50;;;;;;5001066;28;913;-70
2023/07/23 05:44:45;;;;;;;;;;;21.30;62.10;;;;;;4998254;28;1898;-71
2023/07/23 05:47:11;;;;;;;;;;;21.30;63.50;;;;;;4985060;28;2116;-69
2023/07/23 05:49:36;;;;;;;;;;;21.20;62.20;;;;;;4999083;28;1333;-69
2023/07/23 05:52:02;;;;;;;;;;;21.30;62.40;;;;;;4999969;28;1465;-70
2023/07/23 05:54:28;;;;;;;;;;;21.20;62.30;;;;;;4985621;28;886;-69
2023/07/23 05:56:53;;;;;;;;;;;21.20;62.30;;;;;;4996521;28;821;-69
2023/07/23 05:59:18;;;;;;;;;;;21.20;62.50;;;;;;4999642;28;920;-69
2023/07/23 06:01:44;;;;;;;;;;;21.20;62.60;;;;;;4998267;28;1344;-70
2023/07/23 06:04:10;;;;;;;;;;;21.20;62.60;;;;;;4982932;28;960;-70
2023/07/23 06:06:35;;;;;;;;;;;21.20;62.40;;;;;;4982010;28;1906;-70
2023/07/23 06:09:01;;;;;;;;;;;21.20;62.50;;;;;;4987584;28;1195;-71
2023/07/23 06:11:26;;;;;;;;;;;21.20;62.60;;;;;;5001176;28;1276;-70
2023/07/23 06:13:51;;;;;;;;;;;21.20;62.40;;;;;;5002526;28;913;-70
2023/07/23 06:16:17;;;;;;;;;;;21.20;62.80;;;;;;4985946;28;894;-70
2023/07/23 06:18:42;;;;;;;;;;;21.20;62.50;;;;;;4992334;28;1578;-70
2023/07/23 06:21:08;;;;;;;;;;;21.20;62.60;;;;;;5002668;28;1366;-70
2023/07/23 06:23:33;;;;;;;;;;;21.20;62.50;;;;;;5003513;28;881;-70
2023/07/23 06:25:59;;;;;;;;;;;21.20;62.50;;;;;;5002029;28;1997;-72
2023/07/23 06:28:24;;;;;;;;;;;21.20;62.70;;;;;;4998131;28;1346;-70
2023/07/23 06:30:50;;;;;;;;;;;21.20;62.60;;;;;;5003829;28;1271;-71
2023/07/23 06:33:15;;;;;;;;;;;21.20;62.40;;;;;;5002957;28;1034;-71
2023/07/23 06:35:44;;;;;;;;;;;21.20;62.20;;;;;;5001816;28;814;-71
2023/07/23 06:38:09;;;;;;;;;;;21.20;62.10;;;;;;4999992;28;991;-72
2023/07/23 06:40:35;;;;;;;;;;;21.20;62.20;;;;;;4998376;28;1279;-71
2023/07/23 06:43:00;;;;;;;;;;;21.20;62.10;;;;;;5003846;28;950;-70
2023/07/23 06:45:26;;;;;;;;;;;21.20;62.20;;;;;;5001022;28;1911;-70
2023/07/23 06:47:51;;;;;;;;;;;21.20;62.00;;;;;;4998570;28;847;-70
2023/07/23 06:50:19;;;;;;;;;;;21.20;62.00;;;;;;5000392;28;1641;-70
2023/07/23 06:52:45;;;;;;;;;;;21.20;62.00;;;;;;4993312;28;1442;-70
2023/07/23 06:55:10;;;;;;;;;;;21.20;62.60;;;;;;5003983;28;827;-70
2023/07/23 06:57:38;;;;;;;;;;;21.20;61.80;;;;;;4998731;28;852;-69
2023/07/23 07:00:05;;;;;;;;;;;21.20;61.80;;;;;;4999356;28;1259;-69
2023/07/23 07:02:30;;;;;;;;;;;21.20;62.00;;;;;;5002780;28;1477;-69
2023/07/23 07:04:55;;;;;;;;;;;21.20;61.60;;;;;;5002595;28;1910;-69
2023/07/23 07:07:21;;;;;;;;;;;21.20;61.60;;;;;;5000917;28;911;-69
2023/07/23 07:09:46;;;;;;;;;;;21.20;61.70;;;;;;4988104;28;1339;-69
2023/07/23 07:12:12;;;;;;;;;;;21.10;61.60;;;;;;5001310;28;840;-69
2023/07/23 07:14:37;;;;;;;;;;;21.20;61.70;;;;;;5003297;28;927;-69
2023/07/23 07:17:03;;;;;;;;;;;21.20;61.40;;;;;;4998590;28;825;-70
2023/07/23 07:19:28;;;;;;;;;;;21.20;61.70;;;;;;4991831;28;1230;-70
2023/07/23 07:21:54;;;;;;;;;;;21.20;61.40;;;;;;5003560;28;1498;-70
2023/07/23 07:24:19;;;;;;;;;;;21.20;61.30;;;;;;5002312;28;1968;-70
2023/07/23 07:26:45;;;;;;;;;;;21.20;61.40;;;;;;4998036;28;1007;-70
2023/07/23 07:29:10;;;;;;;;;;;21.10;61.30;;;;;;4998702;28;1319;-70
2023/07/23 07:31:36;;;;;;;;;;;21.20;61.40;;;;;;5004293;28;1268;-70
2023/07/23 07:34:01;;;;;;;;;;;21.20;61.10;;;;;;5003210;28;898;-70
2023/07/23 07:36:28;;;;;;;;;;;21.20;61.00;;;;;;4997543;28;928;-70
2023/07/23 07:38:53;;;;;;;;;;;21.20;61.00;;;;;;4999173;28;795;-69
2023/07/23 07:41:19;;;;;;;;;;;21.20;61.00;;;;;;4999837;28;1299;-70
2023/07/23 07:43:44;;;;;;;;;;;21.20;61.20;;;;;;5003405;28;869;-70
2023/07/23 07:46:09;;;;;;;;;;;21.20;61.20;;;;;;4998824;28;1968;-70
2023/07/23 07:48:37;;;;;;;;;;;21.20;61.10;;;;;;5002410;28;954;-70
2023/07/23 07:51:04;;;;;;;;;;;21.20;61.00;;;;;;4999229;28;1273;-70
2023/07/23 07:53:30;;;;;;;;;;;21.20;61.00;;;;;;5000946;28;836;-70
2023/07/23 07:55:55;;;;;;;;;;;21.20;60.80;;;;;;5000334;28;1058;-70
2023/07/23 07:58:27;;;;;;;;;;;21.20;60.40;;;;;;5001163;28;928;-70
2023/07/23 08:00:56;;;;;;;;;;;21.20;60.30;;;;;;5000613;28;1291;-70
2023/07/23 08:03:22;;;;;;;;;;;21.20;60.50;;;;;;5002773;28;845;-70
2023/07/23 08:05:48;;;;;;;;;;;21.20;60.50;;;;;;4996890;28;1966;-70
2023/07/23 08:08:13;;;;;;;;;;;21.20;60.50;;;;;;4987383;28;955;-70
2023/07/23 08:10:39;;;;;;;;;;;21.20;60.50;;;;;;5000562;28;1285;-70
2023/07/23 08:13:04;;;;;;;;;;;21.20;60.00;;;;;;5000894;28;887;-70
2023/07/23 08:15:31;;;;;;;;;;;21.20;59.70;;;;;;4984216;28;1093;-70
2023/07/23 08:17:56;;;;;;;;;;;21.20;59.90;;;;;;5001573;28;811;-70
2023/07/23 08:20:22;;;;;;;;;;;21.20;59.90;;;;;;5004929;28;1475;-70
2023/07/23 08:22:47;;;;;;;;;;;21.20;59.90;;;;;;4999579;28;856;-70
2023/07/23 08:25:13;;;;;;;;;;;21.20;59.80;;;;;;5000976;28;1955;-69
2023/07/23 08:27:39;;;;;;;;;;;21.20;59.80;;;;;;4997818;28;1237;-69
2023/07/23 08:30:05;;;;;;;;;;;21.20;59.90;;;;;;4996021;28;1193;-70
2023/07/23 08:32:30;;;;;;;;;;;21.20;59.80;;;;;;4986051;28;933;-70
2023/07/23 08:34:56;;;;;;;;;;;21.20;59.70;;;;;;5000140;28;943;-70
2023/07/23 08:37:22;;;;;;;;;;;21.20;59.70;;;;;;4996301;28;829;-70
2023/07/23 08:39:47;;;;;;;;;;;21.20;59.60;;;;;;4990874;28;1584;-70
2023/07/23 08:42:14;;;;;;;;;;;21.20;59.80;;;;;;4997803;28;875;-70
2023/07/23 08:44:39;;;;;;;;;;;21.20;59.80;;;;;;4999495;28;1907;-70
2023/07/23 08:47:09;;;;;;;;;;;21.20;59.70;;;;;;4992416;28;1023;-70
2023/07/23 08:49:34;;;;;;;;;;;21.20;59.50;;;;;;5003427;28;879;-70
2023/07/23 08:52:00;;;;;;;;;;;21.30;59.40;;;;;;5000318;28;1533;-70
2023/07/23 08:54:25;;;;;;;;;;;21.30;59.20;;;;;;4991369;28;1334;-69
2023/07/23 08:56:51;;;;;;;;;;;21.30;58.90;;;;;;5000140;28;1353;-70
2023/07/23 08:59:16;;;;;;;;;;;21.30;58.60;;;;;;4997331;28;829;-69
2023/07/23 09:01:42;;;;;;;;;;;21.30;58.50;;;;;;4993661;28;1386;-70
2023/07/23 09:04:10;;;;;;;;;;;21.30;58.30;;;;;;4997086;28;846;-69
2023/07/23 09:06:36;;;;;;;;;;;21.30;58.30;;;;;;4990533;28;1957;-70
2023/07/23 09:09:05;;;;;;;;;;;21.30;58.20;;;;;;4995566;28;913;-70
2023/07/23 09:11:31;;;;;;;;;;;21.20;58.20;;;;;;4998204;28;1251;-69
2023/07/23 09:13:57;;;;;;;;;;;21.30;58.20;;;;;;4984268;28;1200;-70
2023/07/23 09:16:22;;;;;;;;;;;21.30;58.20;;;;;;4997559;28;756;-70
2023/07/23 09:18:48;;;;;;;;;;;21.30;58.10;;;;;;5000482;28;1045;-70
2023/07/23 09:21:21;;;;;;;;;;;21.30;57.90;;;;;;4993337;28;1946;-70
2023/07/23 09:23:49;;;;;;;;;;;21.30;57.80;;;;;;4984104;28;870;-70
2023/07/23 09:26:14;;;;;;;;;;;21.30;57.70;;;;;;4988854;28;1960;-70
2023/07/23 09:28:40;;;;;;;;;;;21.30;58.10;;;;;;4995562;28;1163;-70
2023/07/23 09:31:05;;;;;;;;;;;21.30;57.80;;;;;;4999462;28;1260;-70
2023/07/23 09:33:34;;;;;;;;;;;21.30;57.50;;;;;;4999375;28;848;-70
2023/07/23 09:36:00;;;;;;;;;;;21.30;57.50;;;;;;4996866;28;811;-69
2023/07/23 09:38:28;;;;;;;;;;;21.30;57.70;;;;;;4994629;28;848;-70
2023/07/23 09:40:54;;;;;;;;;;;21.40;58.00;;;;;;4997910;28;1212;-70
2023/07/23 09:43:20;;;;;;;;;;;21.40;57.90;;;;;;4997480;28;845;-70
2023/07/23 09:45:46;;;;;;;;;;;21.40;58.10;;;;;;4999575;28;1902;-70
2023/07/23 09:48:13;;;;;;;;;;;21.40;58.40;;;;;;4997203;28;871;-70
2023/07/23 09:50:38;;;;;;;;;;;21.40;58.50;;;;;;4984902;28;1307;-70
2023/07/23 09:53:07;;;;;;;;;;;21.40;58.60;;;;;;5000894;28;999;-70
2023/07/23 09:55:32;;;;;;;;;;;21.40;58.70;;;;;;5001625;28;1038;-70
2023/07/23 09:57:58;;;;;;;;;;;21.50;58.20;;;;;;4999505;28;891;-70
2023/07/23 10:00:24;;;;;;;;;;;21.50;57.90;;;;;;5002095;28;1350;-70
2023/07/23 10:02:50;;;;;;;;;;;21.50;57.70;;;;;;5002445;28;818;-70
2023/07/23 10:05:16;;;;;;;;;;;21.50;57.50;;;;;;5000855;28;2330;-70
2023/07/23 10:07:42;;;;;;;;;;;21.50;57.20;;;;;;5004405;28;793;-70
2023/07/23 10:10:08;;;;;;;;;;;21.50;56.90;;;;;;5003805;28;1298;-69
2023/07/23 10:12:33;;;;;;;;;;;21.50;56.60;;;;;;5000872;28;850;-69
2023/07/23 10:14:59;;;;;;;;;;;21.60;56.80;;;;;;5001844;28;880;-70
2023/07/23 10:17:24;;;;;;;;;;;21.50;56.80;;;;;;4993433;28;1287;-70
2023/07/23 10:19:50;;;;;;;;;;;21.60;56.30;;;;;;4999652;28;1284;-70
2023/07/23 10:22:15;;;;;;;;;;;21.60;56.20;;;;;;4987435;28;867;-70
2023/07/23 10:24:41;;;;;;;;;;;21.60;56.30;;;;;;4997498;28;1914;-70
2023/07/23 10:27:14;;;;;;;;;;;21.60;55.90;;;;;;4999687;28;1249;-70
2023/07/23 10:29:40;;;;;;;;;;;21.60;55.50;;;;;;5000623;28;1506;-70
2023/07/23 10:32:26;;;;;;;;;;;21.70;55.60;;;;;;4984678;28;1337;-70
2023/07/23 10:34:52;;;;;;;;;;;21.70;55.40;;;;;;5001825;28;2100;-71
2023/07/23 10:37:18;;;;;;;;;;;21.70;55.10;;;;;;4987501;28;1386;-69
2023/07/23 10:39:47;;;;;;;;;;;21.70;55.50;;;;;;5000534;28;1379;-69
2023/07/23 10:42:28;;;;;;;;;;;21.70;55.60;;;;;;4999898;28;845;-69
2023/07/23 10:45:12;;;;;;;;;;;21.70;55.40;;;;;;5001365;28;1950;-70
2023/07/23 10:47:37;;;;;;;;;;;21.70;55.70;;;;;;5001317;28;906;-69
2023/07/23 10:50:09;;;;;;;;;;;21.80;55.60;;;;;;5001206;28;1253;-69
2023/07/23 10:52:35;;;;;;;;;;;21.80;55.70;;;;;;5000419;28;846;-69
2023/07/23 10:55:01;;;;;;;;;;;21.80;55.80;;;;;;5001831;28;871;-70
2023/07/23 10:57:26;;;;;;;;;;;21.80;56.00;;;;;;5000598;28;935;-69
2023/07/23 10:59:52;;;;;;;;;;;21.80;55.90;;;;;;4999409;28;1256;-69
2023/07/23 11:02:23;;;;;;;;;;;21.80;55.90;;;;;;5001014;28;1423;-70
2023/07/23 11:04:48;;;;;;;;;;;21.80;56.00;;;;;;5000955;28;1898;-69
2023/07/23 11:07:24;;;;;;;;;;;21.80;56.10;;;;;;4999719;28;1019;-69
2023/07/23 11:09:49;;;;;;;;;;;21.80;56.20;;;;;;4997801;28;1280;-70
2023/07/23 11:12:15;;;;;;;;;;;21.80;56.10;;;;;;4997810;28;826;-70
2023/07/23 11:14:40;;;;;;;;;;;21.80;56.10;;;;;;5000754;28;846;-70
2023/07/23 11:17:06;;;;;;;;;;;21.80;56.20;;;;;;5000285;28;961;-70
2023/07/23 11:19:31;;;;;;;;;;;21.90;56.20;;;;;;4986958;28;1343;-71
2023/07/23 11:21:58;;;;;;;;;;;21.90;56.20;;;;;;5000136;28;1370;-70
2023/07/23 11:24:24;;;;;;;;;;;21.90;56.00;;;;;;4997304;28;903;-70
2023/07/23 11:26:50;;;;;;;;;;;21.90;55.90;;;;;;4972848;28;1899;-70
2023/07/23 11:29:16;;;;;;;;;;;21.90;56.20;;;;;;4999142;28;1351;-70
2023/07/23 11:31:41;;;;;;;;;;;21.90;55.90;;;;;;5000939;28;1375;-70
2023/07/23 11:34:07;;;;;;;;;;;22.00;56.00;;;;;;4997866;28;2268;-70
2023/07/23 11:36:33;;;;;;;;;;;22.00;56.00;;;;;;4996838;28;1876;-70
2023/07/23 11:38:58;;;;;;;;;;;22.00;55.60;;;;;;4999724;28;1419;-70
2023/07/23 11:41:32;;;;;;;;;;;22.00;55.50;;;;;;5000145;28;1404;-70
2023/07/23 11:43:57;;;;;;;;;;;22.00;55.80;;;;;;4999194;28;824;-70
2023/07/23 11:46:23;;;;;;;;;;;22.00;55.90;;;;;;4997198;28;1915;-70
2023/07/23 11:48:59;;;;;;;;;;;22.00;55.10;;;;;;5001623;28;870;-70
2023/07/23 11:51:25;;;;;;;;;;;22.00;54.40;;;;;;4998042;28;1364;-70
2023/07/23 11:53:51;;;;;;;;;;;22.10;54.70;;;;;;5000984;28;834;-70
2023/07/23 11:56:17;;;;;;;;;;;22.10;54.90;;;;;;5000644;28;836;-70
2023/07/23 11:58:42;;;;;;;;;;;22.10;55.00;;;;;;4998412;28;2141;-70
2023/07/23 12:01:08;;;;;;;;;;;22.00;55.10;;;;;;4987445;28;1409;-70
2023/07/23 12:03:40;;;;;;;;;;;22.10;55.60;;;;;;4998656;28;1930;-70
2023/07/23 12:06:06;;;;;;;;;;;22.10;55.30;;;;;;5003443;28;1907;-70
2023/07/23 12:08:32;;;;;;;;;;;22.10;54.40;;;;;;4981390;28;1197;-69
2023/07/23 12:10:57;;;;;;;;;;;22.10;53.80;;;;;;4995797;28;1265;-70
2023/07/23 12:13:23;;;;;;;;;;;22.10;53.00;;;;;;4997165;28;833;-70
2023/07/23 12:15:54;;;;;;;;;;;22.20;52.30;;;;;;4999237;28;825;-70
2023/07/23 12:18:20;;;;;;;;;;;22.20;52.30;;;;;;4999368;28;1288;-70
2023/07/23 12:20:46;;;;;;;;;;;22.20;52.60;;;;;;4989622;28;1276;-70
2023/07/23 12:23:11;;;;;;;;;;;22.20;51.90;;;;;;4995416;28;822;-70
2023/07/23 12:25:37;;;;;;;;;;;22.20;52.40;;;;;;4997208;28;1969;-70
2023/07/23 12:28:02;;;;;;;;;;;22.20;51.40;;;;;;4995670;28;1291;-70
2023/07/23 12:30:28;;;;;;;;;;;22.20;51.60;;;;;;4997332;28;1350;-70
2023/07/23 12:32:53;;;;;;;;;;;22.20;52.50;;;;;;4999076;28;1066;-70
2023/07/23 12:35:19;;;;;;;;;;;22.20;51.70;;;;;;4997483;28;867;-70
2023/07/23 12:37:44;;;;;;;;;;;22.20;51.40;;;;;;4985013;28;893;-70
2023/07/23 12:40:10;;;;;;;;;;;22.20;51.40;;;;;;4979914;28;1256;-70
2023/07/23 12:42:35;;;;;;;;;;;22.20;51.60;;;;;;4999201;28;811;-70
2023/07/23 12:45:01;;;;;;;;;;;22.20;52.00;;;;;;4996666;28;1981;-70
2023/07/23 12:47:26;;;;;;;;;;;22.20;52.10;;;;;;4999488;28;978;-70
2023/07/23 12:49:52;;;;;;;;;;;22.20;51.00;;;;;;4998638;28;1707;-71
2023/07/23 12:52:21;;;;;;;;;;;22.20;50.90;;;;;;4998856;28;875;-70
2023/07/23 12:54:46;;;;;;;;;;;22.20;51.20;;;;;;4999779;28;867;-70
2023/07/23 12:57:12;;;;;;;;;;;22.20;51.10;;;;;;4982786;28;970;-70
2023/07/23 12:59:38;;;;;;;;;;;22.20;50.40;;;;;;4973464;28;1452;-70
2023/07/23 13:02:03;;;;;;;;;;;22.20;49.60;;;;;;4989790;28;1391;-70
2023/07/23 13:04:29;;;;;;;;;;;22.20;48.90;;;;;;4999679;28;861;-70
2023/07/23 13:06:54;;;;;;;;;;;22.20;48.50;;;;;;4998442;28;1894;-70
2023/07/23 13:09:20;;;;;;;;;;;22.20;49.10;;;;;;4998381;28;827;-70
2023/07/23 13:11:45;;;;;;;;;;;22.20;49.20;;;;;;4999268;28;1346;-70
2023/07/23 13:14:11;;;;;;;;;;;22.20;49.40;;;;;;4997530;28;1241;-70
2023/07/23 13:16:36;;;;;;;;;;;22.30;49.80;;;;;;4994632;28;889;-70
2023/07/23 13:19:02;;;;;;;;;;;22.30;49.70;;;;;;4997644;28;1304;-70
2023/07/23 13:21:27;;;;;;;;;;;22.30;48.60;;;;;;4998365;28;1280;-70
2023/07/23 13:23:52;;;;;;;;;;;22.30;48.40;;;;;;4996030;28;846;-70
2023/07/23 13:26:18;;;;;;;;;;;22.30;49.10;;;;;;5000049;28;1926;-70
2023/07/23 13:28:44;;;;;;;;;;;22.30;49.70;;;;;;4996624;28;1262;-70
2023/07/23 13:31:09;;;;;;;;;;;22.20;49.80;;;;;;4996396;28;1297;-70
2023/07/23 13:33:35;;;;;;;;;;;22.30;48.60;;;;;;4999829;28;856;-70
2023/07/23 13:36:00;;;;;;;;;;;22.30;48.70;;;;;;4998960;28;883;-70
2023/07/23 13:38:25;;;;;;;;;;;22.30;48.40;;;;;;4983220;28;1173;-70
2023/07/23 13:40:51;;;;;;;;;;;22.30;48.60;;;;;;4999663;28;1329;-70
2023/07/23 13:43:16;;;;;;;;;;;22.30;48.90;;;;;;4999127;28;852;-70
2023/07/23 13:45:42;;;;;;;;;;;22.20;48.30;;;;;;4998545;28;1971;-70
2023/07/23 13:48:07;;;;;;;;;;;22.20;48.50;;;;;;4995327;28;813;-70
2023/07/23 13:50:33;;;;;;;;;;;22.30;48.50;;;;;;4997950;28;1370;-70
2023/07/23 13:52:58;;;;;;;;;;;22.30;47.30;;;;;;4998887;28;844;-70
2023/07/23 13:55:24;;;;;;;;;;;22.20;47.50;;;;;;4984038;28;829;-70
2023/07/23 13:57:49;;;;;;;;;;;22.30;48.00;;;;;;4997194;28;892;-70
2023/07/23 14:00:15;;;;;;;;;;;22.20;48.20;;;;;;4998429;28;1435;-70
2023/07/23 14:02:42;;;;;;;;;;;22.20;48.10;;;;;;4997304;28;852;-70
2023/07/23 14:05:14;;;;;;;;;;;22.20;48.30;;;;;;4997969;28;1902;-70
2023/07/23 14:07:39;;;;;;;;;;;22.30;48.60;;;;;;4995834;28;812;-70
2023/07/23 14:10:05;;;;;;;;;;;22.20;48.30;;;;;;4983510;28;1264;-70
2023/07/23 14:12:31;;;;;;;;;;;22.20;48.40;;;;;;4996052;28;2092;-70
2023/07/23 14:14:56;;;;;;;;;;;22.20;47.80;;;;;;4990599;28;2144;-71
2023/07/23 14:17:22;;;;;;;;;;;22.20;47.90;;;;;;4990367;28;1618;-70
2023/07/23 14:19:47;;;;;;;;;;;22.20;47.90;;;;;;4998578;28;1370;-70
2023/07/23 14:22:13;;;;;;;;;;;22.20;47.70;;;;;;5000386;28;1158;-69
2023/07/23 14:24:38;;;;;;;;;;;22.20;47.40;;;;;;4984667;28;1906;-70
2023/07/23 14:27:04;;;;;;;;;;;22.20;47.30;;;;;;5000009;28;993;-70
2023/07/23 14:29:30;;;;;;;;;;;22.20;47.00;;;;;;4984592;28;877;-69